Ride Results

Shahzada Tuesday (26-08-2008)
Ride distance: 80.0 km

Outcomes - Shahzada Tuesday (26-08-2008)
Division No. of Entries Retired / DNE Completed Withdrawn Ineligible V/O Percentage Completed
HW 6 - 6 - - - 100.00%
MW 15 - 12 1 - 2 80.00%
LW 8 - 5 1 - 2 62.50%
JN 2 - 2 - - - 100.00%
Totals 31 - 25 2 - 4 80.65%
Results - Shahzada Tuesday (26-08-2008)
No. Rider Horse Place Time Leg Speeds Total
Km/Hr
H/R bpm
Heavyweight
126 Alan Mackinder Tarabic Carl 1 5:14:00 15.0, 15.5 15.29 34, 38, 44 (Avg:41)
142 Thomas Hermann TTH Headliner 2 5:15:00 15.4, 14.8 15.24 32, 38, 52 (Avg:45)
143 Virginia Blain Suncrest Silver Echo 3 7:42:00 11.5, 9.1 10.39 34, 41, 42 (Avg:41)
149 Steve Barlow Dunwingeri Maashhar 4 7:50:00 11.8, 8.4 10.21 38, 48, 49 (Avg:48)
145 Ray Rhodes Karrana King 5 7:55:00 11.4, 8.6 10.11 48, 50, 54 (Avg:52)
177 Brad Jones Kalim 6 9:15:00 9.5, 7.5 8.65 27, 43, 46 (Avg:44)
Middleweight
178 Paul Keyes Raymar Yasmin (exp BH) 1 5:16:00 15.0, 15.3 15.19 31, 38, 48 (Avg:43)
133 Garry Bennett Karabil Yaningi 2 6:26:00 15.4, 9.7 12.44 35, 37, 41 (Avg:39)
124 Tracy Broadbent Kynnum Park Sahara 3 7:12:00 12.1, 9.9 11.11 38, 38, 48 (Avg:43)
141 Lauren Mitchell Kurrajong Sar Shimba 4 7:27:00 11.8, 9.4 10.74 47, 51, 57 (Avg:54)
183 Justine Blunt Ningadoo Kolo 5 7:42:00 11.5, 9.1 10.39 39, 42, 45 (Avg:43)
119 Marita Rifai Tianna 6 7:46:00 11.0, 9.4 10.30 35, 39, 45 (Avg:42)
115 Louise McCormack Kintamani Silver Flame 7 7:55:00 11.1, 8.8 10.11 32, 47, 50 (Avg:48)
175 Shan Symons A'Landell Karem 7 7:55:00 11.0, 9.0 10.11 37, 41, 47 (Avg:44)
173 Katrina Bodewes Tallawarra Chance 9 8:21:00 10.6, 8.4 9.58 37, 43, 41 (Avg:42)
153 Terry Wood Tallawarra Spy 9 8:21:00 10.6, 8.4 9.58 44, 48, 54 (Avg:51)
130 Louise Counsell Kintamani Bartholemew 11 9:03:00 8.9, 8.6 8.84 26, 29, 33 (Avg:31)
129 Lina Weigel Tristram Hale 11 9:03:00 8.9, 8.6 8.84 32, 36, 39 (Avg:37)
172 Raymond Griffiths Ginger Megs Lame L2 0:00:00 15.0, 12.3 - 36, 43, 0 (Avg:21)
127 Naomi Djuric Ja-Rob Moon Shadow Withdrawn L1 0:00:00 - - 44, 61 (Avg:61)
131 Mark Lindsay Kintamani Charisma Lame L1 0:00:00 11.1 - 31, 43 (Avg:43)
Lightweight
140 Annette Gifford Porcelyn Bey 1 7:12:00 12.3, 9.7 11.11 34, 44, 57 (Avg:50)
188 Jacky Barlow A'Landell Koorah 2 7:55:00 11.0, 9.0 10.11 30, 36, 38 (Avg:37)
121 Danielle Beard Botusa Park Spirit 2 7:55:00 11.4, 8.6 10.11 34, 39, 43 (Avg:41)
118 Barb Giddins Taraglen Wisdom 4 9:35:00 9.9, 6.7 8.35 33, 49, 56 (Avg:52)
136 Virginia Dodson Jupiter Mikena 5 9:36:00 8.9, 7.5 8.33 37, 44, 52 (Avg:48)
122 Leslee Burrell Larntainey Crystal Girl Lame L1 0:00:00 12.1 - 46, 43 (Avg:43)
146 Fia Hasko-Stewart Blake's Heaven Bombora Lame L1 0:00:00 15.1 - 40, 42 (Avg:42)
155 Lisa Stoffel Candy Withdrawn L1 0:00:00 - - 42, 47 (Avg:47)
Junior
156 Wade Burgess Sundown Park Eastwind 1 6:48:00 11.7, 11.7 11.76 35, 38, 44 (Avg:41)
174 Mia Bodewes Leshal Asrahk 2 8:21:00 10.6, 8.4 9.58 34, 48, 52 (Avg:50)